• Join FlightAware (Why Join?)
  • Login
  • US Flag 
03:33AM EDT


 

Airport Tracker/Info


-or-


 

Live Flight TrackerFlight Track Log ✈ XOJ552 ✈ 24-Jun-2013 ✈ KPBI - KHPN

Flight Track Log - Related Links

Times and Time Zones

All times are in EDT time to prevent confusion due to time zone crossing. See the XOJ552 flight status page for this flight to view local times or setup timezone preferences in your user account.

Time Position Orientation Groundspeed Altitude Reporting Facility
EDT Latitude Longitude Course Direction KTS MPH feet Rate Location/Type
12:18PM 26.7464 -79.9925 336° Northwest 265 305 7,800  Level Miami Center
12:19PM 26.8186 -80.0317 334° Northwest 303 349 9,000 600 Climbing Miami Center
12:20PM 26.8294 -80.1111 279° West 317 365 9,000 480 Level Miami Center
12:21PM 26.8442 -80.2047 280° West 317 365 10,000 660 Climbing Miami Center
12:22PM 26.9796 -80.3814 336° Northwest  Level FlightAware Approximate
12:22PM 26.8728 -80.3194 286° West 335 386 10,400  Level Miami Center
12:23PM 27.0976 -80.4405 336° Northwest  Level FlightAware Approximate
12:23PM 26.9550 -80.3756 329° Northwest 328 377 13,400  Level Miami Center
12:24PM 27.0306 -80.4456 320° Northwest 342 394 16,600 3,000 Climbing Miami Center
12:25PM 27.0361 -80.5575 273° West 349 402 19,500 2,160 Climbing Miami Center
12:26PM 27.0456 -80.6744 275° West 370 426 21,000 1,680 Climbing Miami Center
12:27PM 27.0883 -80.7903 293° West 383 441 22,900 1,500 Climbing Miami Center
12:28PM 27.1889 -80.8494 332° Northwest 378 435 24,100 1,860 Climbing Miami Center
12:29PM 27.3006 -80.8883 343° North 377 434 26,700 2,340 Climbing Miami Center
12:30PM 27.4167 -80.9231 345° North 405 466 28,800 1,920 Climbing Miami Center
12:31PM 27.5261 -80.9667 341° North 420 483 30,600 1,680 Climbing Miami Center
12:32PM 27.6439 -81.0061 343° North 425 489 32,200 1,440 Climbing Miami Center
12:33PM 27.7658 -81.0503 342° North 437 503 33,600 1,560 Climbing Miami Center
12:34PM 27.8958 -81.1019 341° North 449 517 35,400 1,620 Climbing Miami Center
12:35PM 27.9908 -81.1361 342° North 449 517 36,900 1,620 Climbing Miami Center
12:36PM 28.1208 -81.1811 343° North 449 517 38,700 1,560 Climbing Miami Center
12:37PM 28.2558 -81.2006 353° North 443 510 40,100 1,140 Climbing Miami Center
12:38PM 28.3703 -81.2167 353° North 452 520 41,000 540 Climbing Miami Center
12:39PM 28.4439 -81.2306 351° North 452 520 41,000  Level Jacksonville Center
12:40PM 28.5547 -81.2453 353° North 433 498 41,000  Level Jacksonville Center
12:41PM 28.6781 -81.2644 352° North 433 498 41,000  Level Jacksonville Center
12:42PM 28.8014 -81.2839 352° North 433 498 41,000  Level Jacksonville Center
12:43PM 28.9269 -81.3008 353° North 448 516 41,000  Level Jacksonville Center
12:44PM 29.0481 -81.3203 352° North 448 516 41,000  Level Jacksonville Center
12:45PM 29.1694 -81.3372 353° North 443 510 41,000  Level Jacksonville Center
12:46PM 29.2969 -81.3519 354° North 449 517 41,000  Level Jacksonville Center
12:47PM 29.4203 -81.3714 352° North 449 517 41,000  Level Jacksonville Center
12:48PM 29.5417 -81.3886 353° North 449 517 41,000  Level Jacksonville Center
12:49PM 29.6669 -81.3986 356° North 449 517 41,000  Level Jacksonville Center
12:50PM 29.7942 -81.3872 North 449 517 41,000  Level Jacksonville Center
12:51PM 29.9192 -81.3781 North 443 510 41,000  Level Jacksonville Center
12:52PM 30.0464 -81.3664 North 443 510 41,000  Level Jacksonville Center
12:53PM 30.1717 -81.3572 North 443 510 41,000  Level Jacksonville Center
12:54PM 30.3011 -81.3456 North 449 517 41,000  Level Jacksonville Center
12:55PM 30.4261 -81.3339 North 449 517 41,000  Level Jacksonville Center
12:56PM 30.5514 -81.3269 North 454 522 41,000  Level Jacksonville Center
12:57PM 30.6786 -81.3200 North 454 522 41,000  Level Jacksonville Center
12:58PM 30.8036 -81.3083 North 454 522 41,000  Level Jacksonville Center
12:59PM 30.9308 -81.2989 North 454 522 41,000  Level Jacksonville Center
01:00PM 31.0561 -81.2872 North 454 522 41,000  Level Jacksonville Center
01:01PM 31.1811 -81.2803 North 449 517 41,000  Level Jacksonville Center
01:02PM 31.3064 -81.2708 North 449 517 41,000 360 Level Jacksonville Center
01:03PM 31.4378 -81.2561 North 439 505 41,800 840 Climbing Jacksonville Center
01:04PM 31.5503 -81.2494 North 439 505 42,700 900 Climbing Jacksonville Center
01:05PM 31.6858 -81.2372 North 444 511 43,600 720 Climbing Jacksonville Center
01:06PM 31.7964 -81.2281 North 439 505 44,200 540 Climbing Jacksonville Center
01:07PM 31.9319 -81.2181 North 439 505 44,700 360 Climbing Jacksonville Center
01:08PM 32.0528 -81.1864 13° North 448 516 45,000 120 Climbing Jacksonville Center
01:09PM 32.1753 -81.1475 15° North 456 525 45,000  Level Jacksonville Center
01:10PM 32.3000 -81.1083 15° North 455 524 45,000  Level Jacksonville Center
01:11PM 32.4144 -81.0764 13° North 456 525 45,000  Level Jacksonville Center
01:12PM 32.5475 -81.0344 15° North 451 519 45,000  Level Jacksonville Center
01:13PM 32.6569 -80.9606 30° Northeast 445 512 45,000  Level Jacksonville Center
01:14PM 32.7408 -80.8428 50° Northeast 446 513 45,000  Level Jacksonville Center
01:15PM 32.8328 -80.7367 44° Northeast 446 513 45,000  Level Jacksonville Center
01:16PM 32.9378 -80.6525 34° Northeast 451 519 45,000  Level Jacksonville Center
01:17PM 33.0406 -80.5608 37° Northeast 457 526 45,000  Level Jacksonville Center
01:18PM 33.1261 -80.4444 49° Northeast 457 526 45,000  Level Jacksonville Center
01:19PM 33.2069 -80.3131 54° Northeast 476 548 45,000  Level Jacksonville Center
01:20PM 33.2942 -80.1964 48° Northeast 470 541 45,000  Level Jacksonville Center
01:21PM 33.3731 -80.0722 53° Northeast 465 535 45,000  Level Jacksonville Center
01:22PM 33.4456 -79.9653 51° Northeast 459 528 45,000  Level Jacksonville Center
01:23PM 33.5219 -79.8431 53° Northeast 454 522 45,000  Level Jacksonville Center
01:24PM 33.6047 -79.7231 50° Northeast 454 522 45,000  Level Jacksonville Center
01:25PM 33.6831 -79.6031 52° Northeast 454 522 45,000  Level Jacksonville Center
01:26PM 33.7633 -79.4825 51° Northeast 454 522 45,000  Level Jacksonville Center
01:27PM 33.8353 -79.3672 53° Northeast 446 513 45,000  Level Jacksonville Center
01:28PM 33.9172 -79.2439 51° Northeast 451 519 45,000  Level Jacksonville Center
01:29PM 33.9992 -79.1228 51° Northeast 456 525 45,000  Level Jacksonville Center
01:31PM 34.1775 -78.8503 52° Northeast 454 522 45,000  Level Washington Center
01:32PM 34.2581 -78.7278 51° Northeast 460 529 45,000 -60 Level Washington Center
01:33PM 34.3486 -78.6106 47° Northeast 465 535 44,900  Descending Washington Center
01:34PM 34.4472 -78.5108 40° Northeast 459 528 45,000  Climbing Washington Center
01:35PM 34.5478 -78.4033 41° Northeast 453 521 45,000  Level Washington Center
01:36PM 34.6481 -78.3108 37° Northeast 453 521 45,000 -60 Level Washington Center
01:37PM 34.7483 -78.2108 39° Northeast 453 521 44,900  Descending Washington Center
01:38PM 34.8531 -78.0925 43° Northeast 458 527 45,000  Climbing Washington Center
01:39PM 34.9511 -77.9917 40° Northeast 458 527 45,000  Level Washington Center
01:40PM 35.0511 -77.8881 40° Northeast 458 527 45,000  Level Washington Center
01:41PM 35.1469 -77.7892 40° Northeast 458 527 45,000  Level Washington Center
01:42PM 35.2469 -77.6853 40° Northeast 458 527 45,000  Level Washington Center
01:43PM 35.3444 -77.5858 40° Northeast 463 533 45,000  Level Washington Center
01:44PM 35.4461 -77.4914 37° Northeast 463 533 45,000  Level Washington Center
01:45PM 35.5519 -77.4022 34° Northeast 458 527 45,000  Level Washington Center
01:46PM 35.6556 -77.3100 36° Northeast 458 527 45,000  Level Washington Center
01:47PM 35.7589 -77.2200 35° Northeast 458 527 45,000  Level Washington Center
01:48PM 35.8603 -77.1272 37° Northeast 458 527 45,000  Level Washington Center
01:49PM 35.9658 -77.0317 36° Northeast 453 521 45,000  Level Washington Center
01:50PM 36.0714 -76.9411 35° Northeast 459 528 45,000  Level Washington Center
01:51PM 36.1767 -76.8453 36° Northeast 459 528 45,000  Level Washington Center
01:52PM 36.2819 -76.7542 35° Northeast 459 528 45,000  Level Washington Center
01:53PM 36.3892 -76.6575 36° Northeast 459 528 45,000  Level Washington Center
01:54PM 36.4942 -76.5633 36° Northeast 459 528 45,000  Level Washington Center
01:55PM 36.5972 -76.4742 35° Northeast 454 522 45,000  Level Washington Center
01:56PM 36.7022 -76.3769 37° Northeast 459 528 45,000  Level Washington Center
01:57PM 36.7986 -76.2844 38° Northeast 464 534 45,000  Level Washington Center
01:58PM 36.9014 -76.1919 36° Northeast 464 534 45,000  Level Washington Center
01:59PM 37.0289 -76.1383 19° North 459 528 45,000  Level Washington Center
02:00PM 37.1439 -76.0714 25° Northeast 465 535 45,000  Level Washington Center
02:01PM 37.2631 -76.0094 22° Northeast 458 527 45,000  Level Washington Center
02:02PM 37.3800 -75.9472 23° Northeast 458 527 45,000  Level Washington Center
02:03PM 37.4969 -75.8825 24° Northeast 458 527 45,000  Level Washington Center
02:04PM 37.6119 -75.8042 28° Northeast 453 521 45,000  Level Washington Center
02:05PM 37.7225 -75.7231 30° Northeast 459 528 45,000  Level Washington Center
02:06PM 37.8353 -75.6392 30° Northeast 459 528 45,000  Level Washington Center
02:07PM 37.9458 -75.5550 31° Northeast 464 534 45,000  Level Washington Center
02:08PM 38.0542 -75.4731 31° Northeast 464 534 45,000  Level Washington Center
02:09PM 38.1708 -75.4017 26° Northeast 458 527 45,000  Level Washington Center
02:10PM 38.2856 -75.3272 27° Northeast 452 520 45,000 -240 Level Washington Center
02:11PM 38.3958 -75.2525 28° Northeast 452 520 44,600 -780 Descending Washington Center
02:12PM 38.5081 -75.1778 28° Northeast 452 520 43,500 -1,080 Descending Washington Center
02:13PM 38.6244 -75.1081 25° Northeast 452 520 42,500 -1,020 Descending Washington Center
02:14PM 38.7431 -75.0275 28° Northeast 458 527 41,500 -1,980 Descending Washington Center
02:15PM 38.8781 -74.9436 26° Northeast 463 533 38,700 -2,580 Descending Washington Center
02:16PM 39.0028 -74.8625 27° Northeast 499 574 36,400 -2,340 Descending Washington Center
02:17PM 39.1250 -74.7703 30° Northeast 505 581 34,000 -2,460 Descending Washington Center
02:18PM 39.2367 -74.6564 38° Northeast 505 581 31,600 -2,460 Descending Washington Center
02:19PM 39.3464 -74.5394 39° Northeast 505 581 29,200 -2,340 Descending Washington Center
02:20PM 39.4350 -74.4481 39° Northeast 508 585 27,300 -2,460 Descending New York Center
02:21PM 39.5428 -74.3350 39° Northeast 508 585 24,900 -1,680 Descending New York Center
02:22PM 39.6461 -74.2272 39° Northeast 496 571 24,000 -780 Descending New York Center
02:23PM 39.7472 -74.1189 39° Northeast 475 547 23,400 -600 Descending New York Center
02:24PM 39.8503 -74.0100 39° Northeast 475 547 22,900 -840 Descending New York Center
02:25PM 39.9392 -73.8842 47° Northeast 463 533 21,800 -1,080 Descending New York Center
02:27PM 40.1683 -73.6403 39° Northeast 437 503 19,200 -1,140 Descending Boston Center
02:28PM 40.2650 -73.5550 34° Northeast 424 488 18,000 -1,080 Descending Boston Center
02:29PM 40.3575 -73.4694 35° Northeast 413 475 17,100 -540 Descending Boston Center
02:30PM 40.4561 -73.3947 30° Northeast 401 461 17,000 -480 Descending Boston Center
02:31PM 40.5528 -73.3194 31° Northeast 396 456 16,200 -1,020 Descending Boston Center
02:32PM 40.6333 -73.2500 33° Northeast 324 373 15,000 -660 Descending New York TRACON
02:33PM 40.7167 -73.2000 24° Northeast 308 354 15,000 -180 Level New York TRACON
02:34PM 40.7833 -73.1500 30° Northeast 279 321 14,700 -1,200 Descending New York TRACON
02:35PM 40.8500 -73.0833 37° Northeast 322 371 12,800 -1,860 Descending New York TRACON
02:36PM 40.9333 -73.0167 31° Northeast 318 366 10,800 -1,620 Descending New York TRACON
02:37PM 41.0167 -73.0333 351° North 296 341 9,400 -1,500 Descending New York TRACON
02:38PM 41.0667 -73.1167 309° West 272 313 7,800 -1,800 Descending New York TRACON
02:39PM 41.0833 -73.2000 285° West 262 302 5,900 -1,860 Descending New York TRACON
02:40PM 41.1167 -73.2833 298° West 251 289 4,100 -900 Descending New York TRACON
02:41PM 41.1500 -73.3833 294° West 258 297 4,100 -660 Level New York TRACON
02:42PM 41.1667 -73.4667 285° West 261 300 2,800 -1,080 Descending New York TRACON
02:43PM 41.1167 -73.5000 207° Southwest 261 300 2,000 -420 Descending New York TRACON
02:44PM 41.0500 -73.5167 191° South 267 307 2,000  Level New York TRACON
02:45PM 40.9833 -73.5167 180° South 215 247 2,000  Level New York TRACON
02:46PM 40.9667 -73.5833 252° West 178 205 2,000  Level New York TRACON
02:47PM 40.9833 -73.6333 294° West 172 198 2,000 -300 Level New York TRACON
02:48PM 41.0167 -73.6667 323° Northwest 147 169 1,400 -660 Descending New York TRACON
02:49PM 41.0500 -73.6833 339° North 128 147 700 -720 Descending New York TRACON
02:51PM 41.0667 -73.7000 329° Northwest  Level FlightAware Approximate